sensor_id;sensor_type;location;lat;lon;timestamp;pressure;altitude;pressure_sealevel;temperature;humidity
12759;BME280;20944;47.048;15.390;2023-02-18T00:01:17;98013.78;;;6.54;89.92
12759;BME280;20944;47.048;15.390;2023-02-18T00:03:46;98014.66;;;6.50;90.27
12759;BME280;20944;47.048;15.390;2023-02-18T00:06:17;98025.94;;;6.51;90.04
12759;BME280;20944;47.048;15.390;2023-02-18T00:08:47;98029.44;;;6.48;90.41
12759;BME280;20944;47.048;15.390;2023-02-18T00:11:16;98021.59;;;6.51;90.13
12759;BME280;20944;47.048;15.390;2023-02-18T00:13:49;98021.59;;;6.51;89.85
12759;BME280;20944;47.048;15.390;2023-02-18T00:16:18;97990.53;;;6.14;90.46
12759;BME280;20944;47.048;15.390;2023-02-18T00:18:47;98015.59;;;6.37;91.00
12759;BME280;20944;47.048;15.390;2023-02-18T00:21:16;98024.25;;;6.43;90.90
12759;BME280;20944;47.048;15.390;2023-02-18T00:23:44;97602.63;;;3.86;90.44
12759;BME280;20944;47.048;15.390;2023-02-18T00:26:14;98026.00;;;6.38;91.27
12759;BME280;20944;47.048;15.390;2023-02-18T00:28:43;98029.47;;;6.34;92.45
12759;BME280;20944;47.048;15.390;2023-02-18T00:31:19;97975.00;;;6.04;92.01
12759;BME280;20944;47.048;15.390;2023-02-18T00:33:48;98024.28;;;6.34;92.50
12759;BME280;20944;47.048;15.390;2023-02-18T00:36:19;98007.81;;;6.35;91.38
12759;BME280;20944;47.048;15.390;2023-02-18T00:38:53;98025.09;;;6.50;91.47
12759;BME280;20944;47.048;15.390;2023-02-18T00:41:22;98037.19;;;6.57;91.18
12759;BME280;20944;47.048;15.390;2023-02-18T00:43:51;98032.03;;;6.45;91.16
12759;BME280;20944;47.048;15.390;2023-02-18T00:46:19;98030.34;;;6.35;91.38
12759;BME280;20944;47.048;15.390;2023-02-18T00:48:48;97998.38;;;6.13;91.98
12759;BME280;20944;47.048;15.390;2023-02-18T00:51:18;98017.44;;;6.18;92.70
12759;BME280;20944;47.048;15.390;2023-02-18T00:53:46;98039.91;;;6.31;92.23
12759;BME280;20944;47.048;15.390;2023-02-18T00:56:14;98037.31;;;6.28;92.82
12759;BME280;20944;47.048;15.390;2023-02-18T00:58:42;98020.91;;;6.14;93.34
12759;BME280;20944;47.048;15.390;2023-02-18T01:01:11;98026.06;;;6.29;93.10
12759;BME280;20944;47.048;15.390;2023-02-18T01:03:40;98020.84;;;6.26;92.98
12759;BME280;20944;47.048;15.390;2023-02-18T01:06:10;98024.34;;;6.20;93.46
12759;BME280;20944;47.048;15.390;2023-02-18T01:08:40;98026.06;;;6.25;93.26
12759;BME280;20944;47.048;15.390;2023-02-18T01:11:10;98012.22;;;6.15;94.03
12759;BME280;20944;47.048;15.390;2023-02-18T01:13:40;98026.09;;;6.17;94.66
12759;BME280;20944;47.048;15.390;2023-02-18T01:16:09;98029.53;;;6.22;94.62
12759;BME280;20944;47.048;15.390;2023-02-18T01:18:38;98036.47;;;6.26;94.40
12759;BME280;20944;47.048;15.390;2023-02-18T01:21:07;98023.47;;;6.23;94.88
12759;BME280;20944;47.048;15.390;2023-02-18T01:23:36;98026.09;;;6.23;95.31
12759;BME280;20944;47.048;15.390;2023-02-18T01:26:07;98026.06;;;6.26;95.00
12759;BME280;20944;47.048;15.390;2023-02-18T01:28:36;97938.66;;;5.81;94.71
12759;BME280;20944;47.048;15.390;2023-02-18T01:31:05;98022.53;;;6.38;93.74
12759;BME280;20944;47.048;15.390;2023-02-18T01:33:34;98030.34;;;6.33;93.76
12759;BME280;20944;47.048;15.390;2023-02-18T01:36:04;98015.69;;;6.17;93.71
12759;BME280;20944;47.048;15.390;2023-02-18T01:41:02;98026.94;;;6.22;94.67
12759;BME280;20944;47.048;15.390;2023-02-18T01:43:32;98024.34;;;6.20;94.17
12759;BME280;20944;47.048;15.390;2023-02-18T01:46:13;97917.97;;;5.43;94.70
12759;BME280;20944;47.048;15.390;2023-02-18T01:48:44;98007.00;;;6.15;94.38
12759;BME280;20944;47.048;15.390;2023-02-18T01:51:16;98021.75;;;6.16;95.31
12759;BME280;20944;47.048;15.390;2023-02-18T01:53:49;98009.66;;;6.12;95.59
12759;BME280;20944;47.048;15.390;2023-02-18T01:56:23;98003.56;;;6.13;95.64
12759;BME280;20944;47.048;15.390;2023-02-18T01:58:56;98008.78;;;6.13;95.90
12759;BME280;20944;47.048;15.390;2023-02-18T02:01:28;98004.44;;;6.07;96.03
12759;BME280;20944;47.048;15.390;2023-02-18T02:03:58;98007.03;;;6.12;95.74
12759;BME280;20944;47.048;15.390;2023-02-18T02:06:26;98010.47;;;6.23;94.29
12759;BME280;20944;47.048;15.390;2023-02-18T02:08:57;98001.78;;;6.21;94.83
12759;BME280;20944;47.048;15.390;2023-02-18T02:11:46;98004.44;;;6.13;95.11
12759;BME280;20944;47.048;15.390;2023-02-18T02:14:36;97987.19;;;5.91;95.85
12759;BME280;20944;47.048;15.390;2023-02-18T02:17:14;97989.75;;;5.83;96.40
12759;BME280;20944;47.048;15.390;2023-02-18T02:26:29;97992.38;;;5.77;97.62
12759;BME280;20944;47.048;15.390;2023-02-18T02:32:44;97995.00;;;5.74;98.69
12759;BME280;20944;47.048;15.390;2023-02-18T02:35:21;97924.06;;;5.41;98.58
12759;BME280;20944;47.048;15.390;2023-02-18T02:37:57;97975.91;;;5.78;98.93
12759;BME280;20944;47.048;15.390;2023-02-18T02:40:34;97974.19;;;5.76;99.24
12759;BME280;20944;47.048;15.390;2023-02-18T02:43:12;97784.03;;;4.59;99.67
12759;BME280;20944;47.048;15.390;2023-02-18T02:45:53;97978.53;;;5.71;100.00
12759;BME280;20944;47.048;15.390;2023-02-18T02:48:28;97811.66;;;4.78;98.75
12759;BME280;20944;47.048;15.390;2023-02-18T02:51:05;97972.47;;;5.79;97.28
12759;BME280;20944;47.048;15.390;2023-02-18T02:53:39;97972.50;;;5.64;98.44
12759;BME280;20944;47.048;15.390;2023-02-18T02:56:12;97971.63;;;5.73;98.85
12759;BME280;20944;47.048;15.390;2023-02-18T02:58:41;97962.94;;;5.64;98.90
12759;BME280;20944;47.048;15.390;2023-02-18T03:01:21;97966.47;;;5.50;100.00
12759;BME280;20944;47.048;15.390;2023-02-18T03:04:07;97970.78;;;5.52;100.00
12759;BME280;20944;47.048;15.390;2023-02-18T03:06:57;97963.84;;;5.47;100.00
12759;BME280;20944;47.048;15.390;2023-02-18T03:09:38;97974.25;;;5.47;100.00
12759;BME280;20944;47.048;15.390;2023-02-18T03:12:13;97962.16;;;5.32;100.00
12759;BME280;20944;47.048;15.390;2023-02-18T03:14:52;97966.50;;;5.34;100.00
12759;BME280;20944;47.048;15.390;2023-02-18T03:17:29;97968.22;;;5.38;100.00
12759;BME280;20944;47.048;15.390;2023-02-18T03:20:05;97969.97;;;5.41;100.00
12759;BME280;20944;47.048;15.390;2023-02-18T03:22:40;97975.13;;;5.46;100.00
12759;BME280;20944;47.048;15.390;2023-02-18T03:25:12;97904.22;;;5.05;100.00
12759;BME280;20944;47.048;15.390;2023-02-18T03:27:43;97981.16;;;5.63;100.00
12759;BME280;20944;47.048;15.390;2023-02-18T03:30:15;97958.66;;;5.57;100.00
12759;BME280;20944;47.048;15.390;2023-02-18T03:32:46;97982.00;;;5.69;100.00
12759;BME280;20944;47.048;15.390;2023-02-18T03:35:17;97901.56;;;5.25;100.00
12759;BME280;20944;47.048;15.390;2023-02-18T03:37:50;98001.09;;;5.68;100.00
12759;BME280;20944;47.048;15.390;2023-02-18T03:40:19;97963.81;;;5.63;100.00
12759;BME280;20944;47.048;15.390;2023-02-18T03:42:48;97911.06;;;5.32;100.00
12759;BME280;20944;47.048;15.390;2023-02-18T03:45:16;97977.66;;;5.70;100.00
12759;BME280;20944;47.048;15.390;2023-02-18T03:47:44;97978.56;;;5.63;100.00
12759;BME280;20944;47.048;15.390;2023-02-18T03:50:13;97971.63;;;5.63;100.00
12759;BME280;20944;47.048;15.390;2023-02-18T03:52:41;97920.59;;;5.26;100.00
12759;BME280;20944;47.048;15.390;2023-02-18T03:55:10;97981.16;;;5.63;100.00
12759;BME280;20944;47.048;15.390;2023-02-18T03:57:39;98005.41;;;5.73;100.00
12759;BME280;20944;47.048;15.390;2023-02-18T04:00:08;97981.97;;;5.82;100.00
12759;BME280;20944;47.048;15.390;2023-02-18T04:02:37;97749.47;;;4.36;100.00
12759;BME280;20944;47.048;15.390;2023-02-18T04:05:06;97987.22;;;5.69;100.00
12759;BME280;20944;47.048;15.390;2023-02-18T04:07:34;97993.25;;;5.81;100.00
12759;BME280;20944;47.048;15.390;2023-02-18T04:10:03;97941.34;;;5.52;100.00
12759;BME280;20944;47.048;15.390;2023-02-18T04:12:32;97995.00;;;5.71;100.00
12759;BME280;20944;47.048;15.390;2023-02-18T04:15:01;97986.34;;;5.74;100.00
12759;BME280;20944;47.048;15.390;2023-02-18T04:17:29;97994.09;;;5.78;100.00
12759;BME280;20944;47.048;15.390;2023-02-18T04:19:57;97983.72;;;5.77;100.00
12759;BME280;20944;47.048;15.390;2023-02-18T04:22:25;97980.25;;;5.79;100.00
12759;BME280;20944;47.048;15.390;2023-02-18T04:24:53;97986.28;;;5.83;100.00
12759;BME280;20944;47.048;15.390;2023-02-18T04:27:21;97985.44;;;5.82;100.00
12759;BME280;20944;47.048;15.390;2023-02-18T04:29:52;97983.72;;;5.75;100.00
12759;BME280;20944;47.048;15.390;2023-02-18T04:32:20;97982.00;;;5.71;100.00
12759;BME280;20944;47.048;15.390;2023-02-18T04:34:48;97971.59;;;5.69;100.00
12759;BME280;20944;47.048;15.390;2023-02-18T04:37:16;97930.97;;;5.39;100.00
12759;BME280;20944;47.048;15.390;2023-02-18T04:39:44;97982.03;;;5.73;100.00
12759;BME280;20944;47.048;15.390;2023-02-18T04:42:12;97977.66;;;5.81;100.00
12759;BME280;20944;47.048;15.390;2023-02-18T04:44:41;97959.47;;;5.72;100.00
12759;BME280;20944;47.048;15.390;2023-02-18T04:47:13;97980.22;;;5.88;100.00
12759;BME280;20944;47.048;15.390;2023-02-18T04:49:41;97921.41;;;5.54;100.00
12759;BME280;20944;47.048;15.390;2023-02-18T04:52:10;97979.38;;;5.80;100.00
12759;BME280;20944;47.048;15.390;2023-02-18T04:54:38;97975.00;;;5.88;100.00
12759;BME280;20944;47.048;15.390;2023-02-18T04:57:06;97949.94;;;5.69;100.00
12759;BME280;20944;47.048;15.390;2023-02-18T04:59:34;97964.66;;;5.81;100.00
12759;BME280;20944;47.048;15.390;2023-02-18T05:02:02;97975.94;;;5.75;100.00
12759;BME280;20944;47.048;15.390;2023-02-18T05:04:32;97972.47;;;5.73;100.00
12759;BME280;20944;47.048;15.390;2023-02-18T05:07:00;97973.34;;;5.72;100.00
12759;BME280;20944;47.048;15.390;2023-02-18T05:09:28;97968.16;;;5.74;100.00
12759;BME280;20944;47.048;15.390;2023-02-18T05:11:56;97963.78;;;5.76;100.00
12759;BME280;20944;47.048;15.390;2023-02-18T05:14:25;97968.09;;;5.78;100.00
12759;BME280;20944;47.048;15.390;2023-02-18T05:16:53;97969.84;;;5.81;100.00
12759;BME280;20944;47.048;15.390;2023-02-18T05:19:21;97969.81;;;5.84;100.00
12759;BME280;20944;47.048;15.390;2023-02-18T05:21:51;97909.31;;;5.44;100.00
12759;BME280;20944;47.048;15.390;2023-02-18T05:24:19;97960.31;;;5.75;100.00
12759;BME280;20944;47.048;15.390;2023-02-18T05:26:47;97977.63;;;5.78;100.00
12759;BME280;20944;47.048;15.390;2023-02-18T05:29:15;97989.81;;;5.73;100.00
12759;BME280;20944;47.048;15.390;2023-02-18T05:31:43;97972.50;;;5.67;100.00
12759;BME280;20944;47.048;15.390;2023-02-18T05:34:12;97986.38;;;5.55;100.00
12759;BME280;20944;47.048;15.390;2023-02-18T05:36:40;97988.09;;;5.67;100.00
12759;BME280;20944;47.048;15.390;2023-02-18T05:39:09;97993.28;;;5.73;100.00
12759;BME280;20944;47.048;15.390;2023-02-18T05:41:37;97956.91;;;5.58;100.00
12759;BME280;20944;47.048;15.390;2023-02-18T05:44:06;97998.47;;;5.76;100.00
12759;BME280;20944;47.048;15.390;2023-02-18T05:46:51;97974.22;;;5.59;100.00
12759;BME280;20944;47.048;15.390;2023-02-18T05:49:20;97929.25;;;5.34;100.00
12759;BME280;20944;47.048;15.390;2023-02-18T05:51:48;97972.50;;;5.59;100.00
12759;BME280;20944;47.048;15.390;2023-02-18T05:54:18;97994.13;;;5.74;100.00
12759;BME280;20944;47.048;15.390;2023-02-18T05:56:46;97976.00;;;5.60;100.00
12759;BME280;20944;47.048;15.390;2023-02-18T05:59:14;97992.41;;;5.71;100.00
12759;BME280;20944;47.048;15.390;2023-02-18T06:01:42;97969.03;;;5.57;100.00
12759;BME280;20944;47.048;15.390;2023-02-18T06:04:11;98001.06;;;5.73;100.00
12759;BME280;20944;47.048;15.390;2023-02-18T06:06:39;97996.75;;;5.74;100.00
12759;BME280;20944;47.048;15.390;2023-02-18T06:09:08;98001.06;;;5.75;100.00
12759;BME280;20944;47.048;15.390;2023-02-18T06:11:38;98010.59;;;5.85;100.00
12759;BME280;20944;47.048;15.390;2023-02-18T06:14:06;97877.38;;;5.05;100.00
12759;BME280;20944;47.048;15.390;2023-02-18T06:16:34;97995.00;;;5.79;100.00
12759;BME280;20944;47.048;15.390;2023-02-18T06:19:03;98010.63;;;5.63;100.00
12759;BME280;20944;47.048;15.390;2023-02-18T06:21:31;98006.31;;;5.49;100.00
12759;BME280;20944;47.048;15.390;2023-02-18T06:23:59;98009.75;;;5.57;100.00
12759;BME280;20944;47.048;15.390;2023-02-18T06:26:27;98009.75;;;5.58;100.00
12759;BME280;20944;47.048;15.390;2023-02-18T06:28:57;98008.03;;;5.57;100.00
12759;BME280;20944;47.048;15.390;2023-02-18T06:31:25;98014.09;;;5.62;100.00
12759;BME280;20944;47.048;15.390;2023-02-18T06:33:53;98014.94;;;5.67;100.00
12759;BME280;20944;47.048;15.390;2023-02-18T06:36:21;97986.38;;;5.57;100.00
12759;BME280;20944;47.048;15.390;2023-02-18T06:38:49;98000.25;;;5.60;100.00
12759;BME280;20944;47.048;15.390;2023-02-18T06:41:19;98000.22;;;5.57;100.00
12759;BME280;20944;47.048;15.390;2023-02-18T06:43:47;97999.38;;;5.61;100.00
12759;BME280;20944;47.048;15.390;2023-02-18T06:46:17;98026.16;;;5.83;100.00
12759;BME280;20944;47.048;15.390;2023-02-18T06:48:45;98023.59;;;5.77;100.00
12759;BME280;20944;47.048;15.390;2023-02-18T06:51:13;97879.97;;;4.99;100.00
12759;BME280;20944;47.048;15.390;2023-02-18T06:53:42;98020.09;;;5.95;100.00
12759;BME280;20944;47.048;15.390;2023-02-18T06:56:11;98023.53;;;5.89;100.00
12759;BME280;20944;47.048;15.390;2023-02-18T06:58:39;98027.03;;;5.88;100.00
12759;BME280;20944;47.048;15.390;2023-02-18T07:01:07;98026.16;;;6.00;100.00
12759;BME280;20944;47.048;15.390;2023-02-18T07:03:37;98014.91;;;5.95;100.00
12759;BME280;20944;47.048;15.390;2023-02-18T07:06:05;98027.88;;;6.10;100.00
12759;BME280;20944;47.048;15.390;2023-02-18T07:08:34;98034.78;;;6.13;100.00
12759;BME280;20944;47.048;15.390;2023-02-18T07:11:03;98000.16;;;5.99;100.00
12759;BME280;20944;47.048;15.390;2023-02-18T07:13:32;98023.50;;;6.12;100.00
12759;BME280;20944;47.048;15.390;2023-02-18T07:16:00;98023.47;;;6.20;100.00
12759;BME280;20944;47.048;15.390;2023-02-18T07:18:28;98002.75;;;6.02;100.00
12759;BME280;20944;47.048;15.390;2023-02-18T07:20:57;98019.97;;;6.30;100.00
12759;BME280;20944;47.048;15.390;2023-02-18T07:23:25;97989.63;;;6.21;100.00
12759;BME280;20944;47.048;15.390;2023-02-18T07:26:02;98021.66;;;6.43;100.00
12759;BME280;20944;47.048;15.390;2023-02-18T07:28:31;98033.78;;;6.46;100.00
12759;BME280;20944;47.048;15.390;2023-02-18T07:30:59;98010.38;;;6.38;100.00
12759;BME280;20944;47.048;15.390;2023-02-18T07:33:27;98038.88;;;6.66;100.00
12759;BME280;20944;47.048;15.390;2023-02-18T07:35:56;98047.56;;;6.66;100.00
12759;BME280;20944;47.048;15.390;2023-02-18T07:38:26;97961.91;;;6.19;100.00
12759;BME280;20944;47.048;15.390;2023-02-18T07:40:55;98059.66;;;6.75;100.00
12759;BME280;20944;47.048;15.390;2023-02-18T07:43:24;98045.78;;;6.74;100.00
12759;BME280;20944;47.048;15.390;2023-02-18T07:45:52;98049.22;;;6.78;100.00
12759;BME280;20944;47.048;15.390;2023-02-18T07:48:21;98049.22;;;6.80;100.00
12759;BME280;20944;47.048;15.390;2023-02-18T07:50:49;98055.22;;;6.89;100.00
12759;BME280;20944;47.048;15.390;2023-02-18T07:53:17;97998.94;;;6.68;100.00
12759;BME280;20944;47.048;15.390;2023-02-18T07:55:47;98012.72;;;6.83;100.00
12759;BME280;20944;47.048;15.390;2023-02-18T07:58:20;98036.03;;;7.06;100.00
12759;BME280;20944;47.048;15.390;2023-02-18T08:00:49;98045.41;;;7.26;100.00
12759;BME280;20944;47.048;15.390;2023-02-18T08:03:18;98058.19;;;7.54;100.00
12759;BME280;20944;47.048;15.390;2023-02-18T08:05:47;97629.84;;;5.03;100.00
12759;BME280;20944;47.048;15.390;2023-02-18T08:08:18;98051.31;;;7.50;100.00
12759;BME280;20944;47.048;15.390;2023-02-18T08:10:50;98061.66;;;7.61;100.00
12759;BME280;20944;47.048;15.390;2023-02-18T08:13:19;98032.13;;;7.54;100.00
12759;BME280;20944;47.048;15.390;2023-02-18T08:15:48;98066.72;;;7.76;100.00
12759;BME280;20944;47.048;15.390;2023-02-18T08:18:18;98059.78;;;7.73;100.00
12759;BME280;20944;47.048;15.390;2023-02-18T08:20:48;98070.09;;;7.87;100.00
12759;BME280;20944;47.048;15.390;2023-02-18T08:23:18;98062.22;;;7.90;100.00
12759;BME280;20944;47.048;15.390;2023-02-18T08:25:49;98060.44;;;7.95;100.00
12759;BME280;20944;47.048;15.390;2023-02-18T08:28:19;98072.50;;;8.05;100.00
12759;BME280;20944;47.048;15.390;2023-02-18T08:30:48;98069.84;;;8.08;100.00
12759;BME280;20944;47.048;15.390;2023-02-18T08:33:18;98069.78;;;8.15;100.00
12759;BME280;20944;47.048;15.390;2023-02-18T08:35:47;98050.63;;;8.17;100.00
12759;BME280;20944;47.048;15.390;2023-02-18T08:38:15;98061.84;;;8.22;100.00
12759;BME280;20944;47.048;15.390;2023-02-18T08:40:44;98059.25;;;8.22;100.00
12759;BME280;20944;47.048;15.390;2023-02-18T08:43:14;98063.53;;;8.28;100.00
12759;BME280;20944;47.048;15.390;2023-02-18T08:45:43;98040.97;;;8.24;100.00
12759;BME280;20944;47.048;15.390;2023-02-18T08:48:12;98063.44;;;8.40;100.00
12759;BME280;20944;47.048;15.390;2023-02-18T08:50:46;98059.84;;;8.49;100.00
12759;BME280;20944;47.048;15.390;2023-02-18T08:53:14;98063.19;;;8.61;98.94
12759;BME280;20944;47.048;15.390;2023-02-18T08:55:43;98057.00;;;8.65;99.41
12759;BME280;20944;47.048;15.390;2023-02-18T08:58:13;98061.19;;;8.80;98.32
12759;BME280;20944;47.048;15.390;2023-02-18T09:00:43;98060.22;;;8.86;98.45
12759;BME280;20944;47.048;15.390;2023-02-18T09:03:12;98057.44;;;9.00;98.85
12759;BME280;20944;47.048;15.390;2023-02-18T09:05:41;98023.56;;;8.90;96.19
12759;BME280;20944;47.048;15.390;2023-02-18T09:08:09;98040.81;;;9.02;95.65
12759;BME280;20944;47.048;15.390;2023-02-18T09:10:38;97994.06;;;8.84;94.72
12759;BME280;20944;47.048;15.390;2023-02-18T09:13:06;98017.16;;;9.11;94.75
12759;BME280;20944;47.048;15.390;2023-02-18T09:15:36;98051.38;;;9.52;93.69
12759;BME280;20944;47.048;15.390;2023-02-18T09:18:04;98049.13;;;9.80;92.49
12759;BME280;20944;47.048;15.390;2023-02-18T09:20:32;98043.50;;;10.01;91.45
12759;BME280;20944;47.048;15.390;2023-02-18T09:23:01;98041.25;;;10.29;89.00
12759;BME280;20944;47.048;15.390;2023-02-18T09:25:29;98040.53;;;10.64;88.44
12759;BME280;20944;47.048;15.390;2023-02-18T09:27:58;98024.41;;;10.81;86.52
12759;BME280;20944;47.048;15.390;2023-02-18T09:30:26;98038.69;;;11.08;85.34
12759;BME280;20944;47.048;15.390;2023-02-18T09:32:56;98039.88;;;11.30;83.38
12759;BME280;20944;47.048;15.390;2023-02-18T09:35:24;98039.44;;;11.49;82.88
12759;BME280;20944;47.048;15.390;2023-02-18T09:37:52;98025.19;;;11.59;82.19
12759;BME280;20944;47.048;15.390;2023-02-18T09:40:24;98038.47;;;11.88;81.97
12759;BME280;20944;47.048;15.390;2023-02-18T09:42:54;97992.25;;;11.80;81.40
12759;BME280;20944;47.048;15.390;2023-02-18T09:45:24;98043.44;;;12.30;79.13
12759;BME280;20944;47.048;15.390;2023-02-18T09:47:52;98035.03;;;12.49;76.34
12759;BME280;20944;47.048;15.390;2023-02-18T09:50:25;98014.00;;;12.49;74.46
12759;BME280;20944;47.048;15.390;2023-02-18T09:52:55;98014.19;;;12.72;72.24
12759;BME280;20944;47.048;15.390;2023-02-18T09:55:28;98020.53;;;12.93;72.19
12759;BME280;20944;47.048;15.390;2023-02-18T09:58:00;98027.06;;;13.09;71.62
12759;BME280;20944;47.048;15.390;2023-02-18T10:00:34;98019.69;;;13.22;71.28
12759;BME280;20944;47.048;15.390;2023-02-18T10:03:06;98019.94;;;13.41;70.80
12759;BME280;20944;47.048;15.390;2023-02-18T10:05:36;97971.06;;;13.32;70.19
12759;BME280;20944;47.048;15.390;2023-02-18T10:08:16;98000.50;;;13.70;66.80
12759;BME280;20944;47.048;15.390;2023-02-18T10:10:47;97987.19;;;13.74;67.32
12759;BME280;20944;47.048;15.390;2023-02-18T10:13:18;97998.09;;;13.89;66.54
12759;BME280;20944;47.048;15.390;2023-02-18T10:15:47;97974.88;;;13.75;66.48
12759;BME280;20944;47.048;15.390;2023-02-18T10:18:25;97995.09;;;13.74;66.10
12759;BME280;20944;47.048;15.390;2023-02-18T10:21:04;97991.59;;;13.74;66.04
12759;BME280;20944;47.048;15.390;2023-02-18T10:23:35;97938.28;;;13.42;67.03
12759;BME280;20944;47.048;15.390;2023-02-18T10:26:06;97989.84;;;13.74;67.38
12759;BME280;20944;47.048;15.390;2023-02-18T10:28:37;97977.03;;;13.89;66.58
12759;BME280;20944;47.048;15.390;2023-02-18T10:31:07;97969.50;;;14.03;65.94
12759;BME280;20944;47.048;15.390;2023-02-18T10:33:44;97951.75;;;14.08;64.53
12759;BME280;20944;47.048;15.390;2023-02-18T10:36:22;97964.22;;;14.26;65.07
12759;BME280;20944;47.048;15.390;2023-02-18T10:39:03;97964.53;;;14.42;64.17
12759;BME280;20944;47.048;15.390;2023-02-18T10:41:38;97866.69;;;14.04;62.80
12759;BME280;20944;47.048;15.390;2023-02-18T10:44:12;97924.78;;;14.48;63.77
12759;BME280;20944;47.048;15.390;2023-02-18T10:46:50;97945.72;;;14.75;62.65
12759;BME280;20944;47.048;15.390;2023-02-18T10:49:39;97922.41;;;14.64;61.48
12759;BME280;20944;47.048;15.390;2023-02-18T10:52:16;97895.41;;;14.57;61.50
12759;BME280;20944;47.048;15.390;2023-02-18T10:54:50;97860.50;;;14.51;60.96
12759;BME280;20944;47.048;15.390;2023-02-18T10:57:21;97921.59;;;15.06;60.40
12759;BME280;20944;47.048;15.390;2023-02-18T10:59:58;97932.41;;;15.22;59.75
12759;BME280;20944;47.048;15.390;2023-02-18T11:02:29;97836.34;;;14.62;59.18
12759;BME280;20944;47.048;15.390;2023-02-18T11:05:05;97788.94;;;14.60;58.68
12759;BME280;20944;47.048;15.390;2023-02-18T11:07:37;97818.91;;;14.79;58.45
12759;BME280;20944;47.048;15.390;2023-02-18T11:10:14;97889.50;;;15.37;58.56
12759;BME280;20944;47.048;15.390;2023-02-18T11:12:45;97890.25;;;15.41;57.56
12759;BME280;20944;47.048;15.390;2023-02-18T11:15:20;97901.72;;;15.60;57.60
12759;BME280;20944;47.048;15.390;2023-02-18T11:17:51;97884.28;;;15.56;55.68
12759;BME280;20944;47.048;15.390;2023-02-18T11:20:26;97712.19;;;14.66;56.33
12759;BME280;20944;47.048;15.390;2023-02-18T11:22:59;97880.84;;;15.74;55.47
12759;BME280;20944;47.048;15.390;2023-02-18T11:25:41;97876.31;;;15.78;55.88
12759;BME280;20944;47.048;15.390;2023-02-18T11:28:27;97864.66;;;15.82;56.49
12759;BME280;20944;47.048;15.390;2023-02-18T11:30:59;97833.22;;;15.76;56.20
12759;BME280;20944;47.048;15.390;2023-02-18T11:33:33;97845.41;;;15.99;54.45
12759;BME280;20944;47.048;15.390;2023-02-18T11:36:16;97835.75;;;15.98;54.38
12759;BME280;20944;47.048;15.390;2023-02-18T11:38:52;97716.41;;;15.30;54.51
12759;BME280;20944;47.048;15.390;2023-02-18T11:41:29;97812.00;;;15.96;54.89
12759;BME280;20944;47.048;15.390;2023-02-18T11:43:59;97804.06;;;15.77;55.34
12759;BME280;20944;47.048;15.390;2023-02-18T11:46:28;97822.53;;;15.79;54.69
12759;BME280;20944;47.048;15.390;2023-02-18T11:49:10;97836.00;;;15.73;56.65
12759;BME280;20944;47.048;15.390;2023-02-18T11:51:48;97796.59;;;15.68;57.24
12759;BME280;20944;47.048;15.390;2023-02-18T11:54:24;97774.97;;;15.58;57.83
12759;BME280;20944;47.048;15.390;2023-02-18T11:56:55;97790.16;;;15.74;57.61
12759;BME280;20944;47.048;15.390;2023-02-18T11:59:25;97784.69;;;15.78;58.24
12759;BME280;20944;47.048;15.390;2023-02-18T12:01:58;97782.81;;;15.80;58.19
12759;BME280;20944;47.048;15.390;2023-02-18T12:04:32;97724.47;;;15.46;58.86
12759;BME280;20944;47.048;15.390;2023-02-18T12:07:11;97765.38;;;15.95;58.90
12759;BME280;20944;47.048;15.390;2023-02-18T12:09:47;97772.25;;;15.99;58.05
12759;BME280;20944;47.048;15.390;2023-02-18T12:12:21;97762.56;;;16.17;57.60
12759;BME280;20944;47.048;15.390;2023-02-18T12:14:53;97755.97;;;16.26;57.38
12759;BME280;20944;47.048;15.390;2023-02-18T12:17:35;97753.34;;;16.26;57.01
12759;BME280;20944;47.048;15.390;2023-02-18T12:20:39;97747.06;;;16.28;58.03
12759;BME280;20944;47.048;15.390;2023-02-18T12:23:16;97733.28;;;16.39;56.75
12759;BME280;20944;47.048;15.390;2023-02-18T12:25:55;97732.03;;;16.46;56.34
12759;BME280;20944;47.048;15.390;2023-02-18T12:28:43;97603.56;;;15.71;55.81
12759;BME280;20944;47.048;15.390;2023-02-18T12:31:27;97722.00;;;16.53;55.92
12759;BME280;20944;47.048;15.390;2023-02-18T12:34:17;97680.25;;;16.42;57.01
12759;BME280;20944;47.048;15.390;2023-02-18T12:36:59;97705.25;;;16.71;58.31
12759;BME280;20944;47.048;15.390;2023-02-18T12:39:43;97694.03;;;16.83;55.82
12759;BME280;20944;47.048;15.390;2023-02-18T12:42:31;97701.19;;;16.98;54.09
12759;BME280;20944;47.048;15.390;2023-02-18T12:45:24;97694.53;;;17.07;53.73
12759;BME280;20944;47.048;15.390;2023-02-18T12:48:16;97690.63;;;17.14;53.90
12759;BME280;20944;47.048;15.390;2023-02-18T12:51:07;97687.78;;;17.02;54.00
12759;BME280;20944;47.048;15.390;2023-02-18T12:54:01;97687.63;;;17.05;53.85
12759;BME280;20944;47.048;15.390;2023-02-18T12:56:51;97676.19;;;17.04;53.59
12759;BME280;20944;47.048;15.390;2023-02-18T12:59:55;97674.38;;;17.05;53.32
12759;BME280;20944;47.048;15.390;2023-02-18T13:02:51;97663.91;;;16.86;54.06
12759;BME280;20944;47.048;15.390;2023-02-18T13:05:29;97663.25;;;16.98;54.62
12759;BME280;20944;47.048;15.390;2023-02-18T13:08:11;97650.81;;;16.83;54.44
12759;BME280;20944;47.048;15.390;2023-02-18T13:10:53;97663.13;;;16.84;53.77
12759;BME280;20944;47.048;15.390;2023-02-18T13:13:30;97656.91;;;16.67;53.72
12759;BME280;20944;47.048;15.390;2023-02-18T13:16:02;97624.06;;;16.37;56.07
12759;BME280;20944;47.048;15.390;2023-02-18T13:18:34;97665.16;;;16.44;55.73
12759;BME280;20944;47.048;15.390;2023-02-18T13:21:05;97657.53;;;16.38;55.93
12759;BME280;20944;47.048;15.390;2023-02-18T13:23:36;97648.13;;;16.50;55.41
12759;BME280;20944;47.048;15.390;2023-02-18T13:26:10;97633.16;;;16.66;55.17
12759;BME280;20944;47.048;15.390;2023-02-18T13:28:45;97632.38;;;16.81;54.75
12759;BME280;20944;47.048;15.390;2023-02-18T13:31:27;97583.22;;;16.60;53.66